Time;durP1;ratioP1;P1;durP2;ratioP2;P2;SDS_P1;SDS_P2;PMS_P1;PMS_P2;Temp;Humidity;BMP_temperature;BMP_pressure;BME280_temperature;BME280_humidity;BME280_pressure;Samples;Min_cycle;Max_cycle;Signal;HPM_P1;HPM_P2
2021/12/29 00:01:36;;;;;;;189.48;42.35;;;;;;;;;;6183631;23;20052;-83
2021/12/29 00:04:03;;;;;;;158.60;39.95;;;;;;;;;;6159051;23;20449;-82
2021/12/29 00:06:32;;;;;;;114.43;34.67;;;;;;;;;;6183600;23;20079;-82
2021/12/29 00:08:59;;;;;;;163.63;42.53;;;;;;;;;;6183649;23;20016;-82
2021/12/29 00:11:26;;;;;;;134.45;37.83;;;;;;;;;;6184008;23;20012;-83
2021/12/29 00:13:52;;;;;;;131.77;37.85;;;;;;;;;;6183475;23;20423;-83
2021/12/29 00:16:18;;;;;;;122.30;34.58;;;;;;;;;;6158710;23;20022;-83
2021/12/29 00:18:45;;;;;;;92.40;32.42;;;;;;;;;;6183381;23;20125;-82
2021/12/29 00:21:11;;;;;;;136.65;36.13;;;;;;;;;;6183718;23;20229;-82
2021/12/29 00:23:38;;;;;;;117.25;31.60;;;;;;;;;;6183393;23;20013;-83
2021/12/29 00:26:04;;;;;;;113.70;30.92;;;;;;;;;;6183452;23;20012;-82
2021/12/29 00:28:30;;;;;;;106.80;30.38;;;;;;;;;;6183500;23;20063;-82
2021/12/29 00:30:56;;;;;;;107.97;32.47;;;;;;;;;;6183347;23;20431;-82
2021/12/29 00:33:22;;;;;;;90.75;27.85;;;;;;;;;;6159038;23;20312;-82
2021/12/29 00:35:49;;;;;;;79.40;24.88;;;;;;;;;;6183700;23;20100;-82
2021/12/29 00:38:15;;;;;;;157.68;34.83;;;;;;;;;;6183678;23;20012;-83
2021/12/29 00:40:42;;;;;;;101.38;29.30;;;;;;;;;;6158984;23;20031;-82
2021/12/29 00:43:08;;;;;;;250.18;41.90;;;;;;;;;;6183597;23;20016;-82
2021/12/29 00:45:36;;;;;;;75.18;24.13;;;;;;;;;;6183545;23;20320;-83
2021/12/29 00:48:10;;;;;;;112.03;28.75;;;;;;;;;;6158351;23;20016;-82
2021/12/29 00:50:36;;;;;;;138.63;31.95;;;;;;;;;;6183289;23;20024;-82
2021/12/29 00:53:02;;;;;;;73.45;24.23;;;;;;;;;;6200924;23;20066;-82
2021/12/29 00:55:28;;;;;;;96.10;27.25;;;;;;;;;;6213399;23;20038;-82
2021/12/29 00:57:55;;;;;;;125.45;29.30;;;;;;;;;;6188227;23;20508;-82
2021/12/29 01:00:24;;;;;;;84.78;25.00;;;;;;;;;;6212762;23;20042;-83
2021/12/29 01:02:50;;;;;;;70.22;23.58;;;;;;;;;;6213177;23;20016;-82
2021/12/29 01:05:17;;;;;;;67.45;21.63;;;;;;;;;;6213240;23;20012;-82
2021/12/29 01:07:49;;;;;;;100.10;26.77;;;;;;;;;;6213137;23;20069;-82
2021/12/29 01:10:16;;;;;;;103.22;27.20;;;;;;;;;;6213172;23;20067;-82
2021/12/29 01:12:51;;;;;;;158.88;33.03;;;;;;;;;;6187990;23;20023;-82
2021/12/29 01:15:24;;;;;;;110.53;27.23;;;;;;;;;;6213056;23;20016;-82
2021/12/29 01:17:50;;;;;;;98.25;28.70;;;;;;;;;;6213164;23;20012;-83
2021/12/29 01:20:17;;;;;;;87.07;25.27;;;;;;;;;;6213173;23;20478;-82
2021/12/29 01:22:46;;;;;;;132.57;29.92;;;;;;;;;;6212701;23;20012;-84
2021/12/29 01:25:12;;;;;;;104.43;27.52;;;;;;;;;;6213410;23;20012;-82
2021/12/29 01:27:38;;;;;;;111.13;27.13;;;;;;;;;;6212897;23;20038;-82
2021/12/29 01:30:09;;;;;;;122.95;29.40;;;;;;;;;;6212874;23;20066;-84
2021/12/29 01:32:35;;;;;;;128.43;30.98;;;;;;;;;;6188004;23;20016;-82
2021/12/29 01:35:02;;;;;;;154.70;33.83;;;;;;;;;;6212917;23;20020;-82
2021/12/29 01:37:28;;;;;;;145.32;32.17;;;;;;;;;;6213250;23;20018;-83
2021/12/29 01:39:55;;;;;;;130.75;31.52;;;;;;;;;;6213228;23;20061;-82
2021/12/29 01:42:21;;;;;;;109.50;29.65;;;;;;;;;;6213427;23;20020;-82
2021/12/29 01:44:47;;;;;;;177.80;35.35;;;;;;;;;;6188306;23;20282;-82
2021/12/29 01:47:14;;;;;;;155.23;33.75;;;;;;;;;;6212997;23;20012;-82
2021/12/29 01:49:41;;;;;;;180.50;33.63;;;;;;;;;;6212761;23;20019;-82
2021/12/29 01:52:13;;;;;;;181.13;35.55;;;;;;;;;;6213407;23;20095;-82
2021/12/29 01:54:40;;;;;;;169.02;36.58;;;;;;;;;;6238076;23;20050;-82
2021/12/29 01:57:09;;;;;;;157.00;34.63;;;;;;;;;;6212811;23;20012;-82
2021/12/29 01:59:35;;;;;;;160.27;33.40;;;;;;;;;;6212786;23;20087;-82
2021/12/29 02:02:02;;;;;;;162.18;34.65;;;;;;;;;;6213228;23;20115;-82
2021/12/29 02:04:28;;;;;;;149.88;32.22;;;;;;;;;;6213347;23;20016;-82
2021/12/29 02:06:54;;;;;;;171.18;34.42;;;;;;;;;;6213548;23;20385;-82
2021/12/29 02:09:20;;;;;;;170.35;33.78;;;;;;;;;;6212941;23;20024;-82
2021/12/29 02:11:47;;;;;;;144.18;32.60;;;;;;;;;;6212789;23;20012;-82
2021/12/29 02:14:13;;;;;;;193.07;36.97;;;;;;;;;;6212668;23;20016;-82
2021/12/29 02:16:40;;;;;;;168.20;33.78;;;;;;;;;;6213204;23;20051;-82
2021/12/29 02:19:08;;;;;;;178.48;33.97;;;;;;;;;;6212662;23;20319;-82
2021/12/29 02:21:35;;;;;;;192.93;38.55;;;;;;;;;;6212393;23;20012;-82
2021/12/29 02:26:28;;;;;;;162.93;34.53;;;;;;;;;;6212766;23;20070;-82
2021/12/29 02:28:55;;;;;;;199.73;37.42;;;;;;;;;;6212838;23;20016;-82
2021/12/29 02:31:22;;;;;;;139.95;30.80;;;;;;;;;;6212599;23;20011;-82
2021/12/29 02:33:49;;;;;;;151.23;32.13;;;;;;;;;;6187483;23;20062;-83
2021/12/29 02:36:17;;;;;;;159.40;32.35;;;;;;;;;;6212630;23;20086;-82
2021/12/29 02:38:56;;;;;;;162.68;32.67;;;;;;;;;;6213073;23;20066;-82
2021/12/29 02:41:26;;;;;;;179.80;34.63;;;;;;;;;;6214316;23;20164;-82
2021/12/29 02:43:59;;;;;;;150.85;31.50;;;;;;;;;;6214975;23;20442;-82
2021/12/29 02:46:26;;;;;;;145.30;29.45;;;;;;;;;;6214714;23;20012;-82
2021/12/29 02:48:59;;;;;;;120.68;26.98;;;;;;;;;;6214521;23;20012;-82
2021/12/29 02:51:33;;;;;;;127.80;27.13;;;;;;;;;;6213960;23;20325;-82
2021/12/29 02:54:00;;;;;;;118.68;26.67;;;;;;;;;;6214230;23;20016;-82
2021/12/29 02:56:27;;;;;;;102.13;23.15;;;;;;;;;;6213695;23;20067;-83
2021/12/29 02:58:54;;;;;;;96.85;23.45;;;;;;;;;;6214390;23;20012;-83
2021/12/29 03:01:21;;;;;;;110.68;23.48;;;;;;;;;;6214484;23;20015;-83
2021/12/29 03:03:47;;;;;;;84.93;21.92;;;;;;;;;;6214390;23;20090;-82
2021/12/29 03:06:14;;;;;;;94.10;22.40;;;;;;;;;;6214187;23;20043;-82
2021/12/29 03:08:41;;;;;;;98.32;23.63;;;;;;;;;;6213597;23;20081;-82
2021/12/29 03:11:07;;;;;;;93.07;22.92;;;;;;;;;;6213821;23;20047;-82
2021/12/29 03:13:35;;;;;;;79.00;20.90;;;;;;;;;;6213543;23;20020;-82
2021/12/29 03:16:02;;;;;;;89.70;22.17;;;;;;;;;;6213795;23;20465;-82
2021/12/29 03:18:28;;;;;;;93.47;21.45;;;;;;;;;;6214285;23;20016;-83
2021/12/29 03:20:54;;;;;;;91.47;22.08;;;;;;;;;;6214462;23;20008;-82
2021/12/29 03:23:21;;;;;;;95.47;21.10;;;;;;;;;;6214074;23;20145;-82
2021/12/29 03:25:48;;;;;;;75.57;21.42;;;;;;;;;;6214845;23;20020;-84
2021/12/29 03:28:14;;;;;;;101.72;22.73;;;;;;;;;;6213976;23;20016;-82
2021/12/29 03:30:41;;;;;;;87.43;21.77;;;;;;;;;;6214111;23;20015;-82
2021/12/29 03:33:09;;;;;;;103.97;23.52;;;;;;;;;;6214081;23;20012;-83
2021/12/29 03:35:41;;;;;;;99.72;23.77;;;;;;;;;;6189108;23;20012;-83
2021/12/29 03:38:09;;;;;;;93.13;23.67;;;;;;;;;;6188705;23;20016;-83
2021/12/29 03:40:38;;;;;;;98.82;24.27;;;;;;;;;;6214148;23;20016;-86
2021/12/29 03:43:05;;;;;;;128.23;27.77;;;;;;;;;;6214285;23;20012;-82
2021/12/29 03:45:31;;;;;;;99.95;24.92;;;;;;;;;;6213998;23;20346;-83
2021/12/29 03:47:58;;;;;;;112.18;26.48;;;;;;;;;;6213853;23;20016;-83
2021/12/29 03:50:24;;;;;;;133.10;30.63;;;;;;;;;;6213100;23;20438;-82
2021/12/29 03:52:50;;;;;;;183.30;32.40;;;;;;;;;;6193648;23;20174;-83
2021/12/29 03:55:17;;;;;;;140.30;30.27;;;;;;;;;;6178648;23;20451;-83
2021/12/29 03:57:43;;;;;;;116.78;30.73;;;;;;;;;;6154005;23;20012;-82
2021/12/29 04:00:11;;;;;;;159.70;33.60;;;;;;;;;;6129816;23;20017;-83
2021/12/29 04:02:37;;;;;;;142.80;32.97;;;;;;;;;;6129283;23;20013;-83
2021/12/29 04:05:04;;;;;;;122.38;33.08;;;;;;;;;;6153920;23;20024;-83
2021/12/29 04:07:31;;;;;;;144.45;37.08;;;;;;;;;;6129007;23;20017;-83
2021/12/29 04:09:57;;;;;;;128.43;34.42;;;;;;;;;;6154129;23;20020;-84
2021/12/29 04:12:24;;;;;;;154.15;37.60;;;;;;;;;;6153670;23;20078;-83
2021/12/29 04:14:50;;;;;;;137.90;36.95;;;;;;;;;;6154049;23;20027;-82
2021/12/29 04:17:18;;;;;;;205.77;41.05;;;;;;;;;;6153424;23;20009;-83
2021/12/29 04:22:35;;;;;;;149.60;38.70;;;;;;;;;;6112468;23;20521;-83
2021/12/29 04:25:01;;;;;;;139.73;37.83;;;;;;;;;;6129323;23;20277;-83
2021/12/29 04:27:27;;;;;;;161.70;40.55;;;;;;;;;;6153802;23;20039;-83
2021/12/29 04:29:53;;;;;;;146.63;39.70;;;;;;;;;;6153678;23;20024;-83
2021/12/29 04:32:19;;;;;;;194.50;42.33;;;;;;;;;;6153594;23;20056;-83
2021/12/29 04:34:46;;;;;;;169.23;42.22;;;;;;;;;;6153717;23;20049;-82
2021/12/29 04:37:12;;;;;;;180.68;42.72;;;;;;;;;;6153217;23;20013;-82
2021/12/29 04:39:38;;;;;;;170.50;41.47;;;;;;;;;;6153715;23;20009;-82
2021/12/29 04:42:05;;;;;;;123.55;36.33;;;;;;;;;;6153565;23;20009;-83
2021/12/29 04:44:31;;;;;;;118.32;35.10;;;;;;;;;;6153577;23;20017;-84
2021/12/29 04:46:58;;;;;;;142.02;37.03;;;;;;;;;;6153617;23;20016;-84
2021/12/29 04:49:28;;;;;;;163.55;38.60;;;;;;;;;;6128851;23;20103;-83
2021/12/29 04:52:04;;;;;;;183.27;42.13;;;;;;;;;;6156808;23;20016;-83
2021/12/29 04:54:30;;;;;;;131.27;37.03;;;;;;;;;;6208111;23;20059;-82
2021/12/29 04:56:57;;;;;;;157.30;39.08;;;;;;;;;;6208415;23;20012;-82
2021/12/29 04:59:23;;;;;;;194.35;42.70;;;;;;;;;;6208802;23;20551;-82
2021/12/29 05:01:50;;;;;;;159.10;39.85;;;;;;;;;;6207961;23;20355;-83
2021/12/29 05:04:30;;;;;;;176.70;40.65;;;;;;;;;;6208399;23;20059;-83
2021/12/29 05:09:42;;;;;;;159.52;40.92;;;;;;;;;;6207773;23;20016;-83
2021/12/29 05:12:09;;;;;;;164.43;39.78;;;;;;;;;;6208455;23;20473;-83
2021/12/29 05:14:36;;;;;;;156.60;41.50;;;;;;;;;;6208151;23;20017;-83
2021/12/29 05:17:02;;;;;;;157.48;39.72;;;;;;;;;;6182998;23;20252;-83
2021/12/29 05:19:28;;;;;;;152.55;39.53;;;;;;;;;;6183090;23;20062;-83
2021/12/29 05:21:54;;;;;;;114.28;36.08;;;;;;;;;;6207998;23;20066;-83
2021/12/29 05:24:21;;;;;;;147.43;40.88;;;;;;;;;;6208487;23;20419;-82
2021/12/29 05:26:47;;;;;;;173.18;43.35;;;;;;;;;;6183115;23;20020;-82
2021/12/29 05:29:13;;;;;;;157.35;42.10;;;;;;;;;;6207997;23;20009;-82
2021/12/29 05:31:39;;;;;;;146.50;40.00;;;;;;;;;;6183161;23;20016;-82
2021/12/29 05:34:05;;;;;;;149.82;40.70;;;;;;;;;;6208041;23;20466;-83
2021/12/29 05:36:32;;;;;;;197.98;45.10;;;;;;;;;;6207441;23;20009;-83
2021/12/29 05:38:58;;;;;;;129.75;38.45;;;;;;;;;;6208009;23;20461;-82
2021/12/29 05:41:24;;;;;;;121.93;37.65;;;;;;;;;;6208216;23;20017;-83
2021/12/29 05:43:50;;;;;;;116.15;38.92;;;;;;;;;;6207911;23;20350;-82
2021/12/29 05:46:17;;;;;;;183.02;44.15;;;;;;;;;;6208353;23;20021;-82
2021/12/29 05:48:43;;;;;;;168.80;43.55;;;;;;;;;;6207889;23;20019;-82
2021/12/29 05:51:12;;;;;;;144.95;41.35;;;;;;;;;;6182741;23;20234;-82
2021/12/29 05:53:39;;;;;;;147.68;40.08;;;;;;;;;;6182861;23;20021;-83
2021/12/29 05:56:05;;;;;;;124.60;37.28;;;;;;;;;;6207772;23;20063;-83
2021/12/29 05:58:31;;;;;;;134.18;39.63;;;;;;;;;;6207970;23;20021;-82
2021/12/29 06:00:57;;;;;;;156.32;42.35;;;;;;;;;;6208474;23;20106;-83
2021/12/29 06:03:24;;;;;;;114.85;37.00;;;;;;;;;;6207929;23;20019;-83
2021/12/29 06:05:50;;;;;;;138.60;39.78;;;;;;;;;;6207907;23;20087;-83
2021/12/29 06:08:17;;;;;;;164.75;44.85;;;;;;;;;;6207841;23;20016;-82
2021/12/29 06:10:43;;;;;;;143.43;39.17;;;;;;;;;;6182774;23;20019;-83
2021/12/29 06:13:09;;;;;;;144.50;38.92;;;;;;;;;;6207868;23;20038;-83
2021/12/29 06:15:35;;;;;;;166.75;42.42;;;;;;;;;;6209559;23;20481;-84
2021/12/29 06:18:01;;;;;;;184.63;44.00;;;;;;;;;;6209805;23;20015;-82
2021/12/29 06:20:28;;;;;;;136.57;38.92;;;;;;;;;;6210415;23;20008;-82
2021/12/29 06:22:54;;;;;;;124.05;37.33;;;;;;;;;;6209787;23;20013;-83
2021/12/29 06:25:20;;;;;;;179.85;43.38;;;;;;;;;;6209751;23;20633;-82
2021/12/29 06:27:46;;;;;;;136.10;39.28;;;;;;;;;;6209571;23;20035;-82
2021/12/29 06:30:14;;;;;;;120.93;36.95;;;;;;;;;;6209515;23;20079;-82
2021/12/29 06:32:41;;;;;;;129.02;38.25;;;;;;;;;;6209377;23;20027;-82
2021/12/29 06:35:08;;;;;;;160.40;41.78;;;;;;;;;;6209748;23;20091;-82
2021/12/29 06:37:35;;;;;;;146.77;40.10;;;;;;;;;;6208670;23;20008;-82
2021/12/29 06:40:01;;;;;;;139.93;37.72;;;;;;;;;;6208681;23;20012;-84
2021/12/29 06:42:27;;;;;;;173.32;41.25;;;;;;;;;;6208905;23;20048;-82
2021/12/29 06:44:53;;;;;;;143.27;37.67;;;;;;;;;;6209643;23;20016;-83
2021/12/29 06:47:19;;;;;;;117.30;34.80;;;;;;;;;;6208925;23;20099;-82
2021/12/29 06:49:45;;;;;;;138.25;36.30;;;;;;;;;;6209686;23;20017;-82
2021/12/29 06:52:12;;;;;;;132.07;35.58;;;;;;;;;;6208528;23;20513;-83
2021/12/29 06:54:38;;;;;;;170.32;38.38;;;;;;;;;;6209743;23;20071;-83
2021/12/29 06:57:05;;;;;;;148.50;36.45;;;;;;;;;;6209378;23;20009;-83
2021/12/29 06:59:31;;;;;;;133.77;35.45;;;;;;;;;;6209751;23;20048;-83
2021/12/29 07:01:57;;;;;;;97.30;29.50;;;;;;;;;;6209575;23;20016;-82
2021/12/29 07:04:24;;;;;;;146.05;35.80;;;;;;;;;;6184006;23;20012;-83
2021/12/29 07:06:51;;;;;;;116.65;33.30;;;;;;;;;;6208588;23;20071;-82
2021/12/29 07:09:18;;;;;;;147.40;36.70;;;;;;;;;;6208539;23;20035;-82
2021/12/29 07:11:44;;;;;;;120.13;33.70;;;;;;;;;;6209509;23;20088;-82
2021/12/29 07:14:10;;;;;;;144.77;34.97;;;;;;;;;;6209126;23;20150;-83
2021/12/29 07:16:38;;;;;;;102.43;30.63;;;;;;;;;;6184448;23;20343;-82
2021/12/29 07:19:04;;;;;;;132.20;34.08;;;;;;;;;;6184251;23;20456;-83
2021/12/29 07:21:31;;;;;;;120.03;32.70;;;;;;;;;;6209490;23;20012;-83
2021/12/29 07:23:57;;;;;;;139.60;34.50;;;;;;;;;;6209700;23;20018;-83
2021/12/29 07:26:24;;;;;;;122.10;33.88;;;;;;;;;;6183501;23;20351;-83
2021/12/29 07:28:50;;;;;;;130.23;31.75;;;;;;;;;;6183586;23;20020;-83
2021/12/29 07:31:17;;;;;;;149.73;35.85;;;;;;;;;;6208744;23;20019;-83
2021/12/29 07:33:43;;;;;;;138.07;36.35;;;;;;;;;;6208568;23;20013;-83
2021/12/29 07:36:11;;;;;;;116.15;32.78;;;;;;;;;;6208485;23;20052;-83
2021/12/29 07:38:37;;;;;;;145.77;35.78;;;;;;;;;;6183785;23;20020;-83
2021/12/29 07:41:03;;;;;;;118.05;32.45;;;;;;;;;;6207256;23;20158;-84
2021/12/29 07:43:30;;;;;;;122.28;34.42;;;;;;;;;;6207134;23;20019;-82
2021/12/29 07:45:56;;;;;;;140.52;35.40;;;;;;;;;;6207659;23;20027;-83
2021/12/29 07:48:27;;;;;;;170.25;38.13;;;;;;;;;;6208103;23;20297;-81
2021/12/29 07:50:53;;;;;;;161.32;36.95;;;;;;;;;;6208750;23;20086;-83
2021/12/29 07:53:20;;;;;;;148.73;34.95;;;;;;;;;;6183277;23;20028;-83
2021/12/29 07:55:46;;;;;;;152.15;37.17;;;;;;;;;;6207775;23;20451;-83
2021/12/29 07:58:12;;;;;;;149.15;34.55;;;;;;;;;;6208303;23;20095;-83
2021/12/29 08:00:38;;;;;;;140.32;36.22;;;;;;;;;;6208340;23;20012;-83
2021/12/29 08:03:05;;;;;;;122.63;32.33;;;;;;;;;;6208945;23;20317;-83
2021/12/29 08:05:31;;;;;;;146.52;35.75;;;;;;;;;;6208432;23;20017;-83
2021/12/29 08:07:57;;;;;;;148.85;34.03;;;;;;;;;;6208325;23;20440;-83
2021/12/29 08:10:23;;;;;;;142.02;33.40;;;;;;;;;;6208353;23;20095;-83
2021/12/29 08:12:49;;;;;;;113.43;29.55;;;;;;;;;;6208257;23;20017;-83
2021/12/29 08:15:16;;;;;;;134.05;33.28;;;;;;;;;;6208168;23;20088;-83
2021/12/29 08:17:43;;;;;;;157.85;34.88;;;;;;;;;;6208011;23;20086;-83
2021/12/29 08:20:10;;;;;;;135.05;31.40;;;;;;;;;;6208322;23;20023;-83
2021/12/29 08:22:36;;;;;;;135.68;32.80;;;;;;;;;;6183182;23;20086;-83
2021/12/29 08:25:02;;;;;;;122.75;31.92;;;;;;;;;;6183076;23;20054;-83
2021/12/29 08:27:28;;;;;;;131.20;30.20;;;;;;;;;;6208337;23;20087;-83
2021/12/29 08:29:55;;;;;;;130.23;32.55;;;;;;;;;;6208173;23;20095;-83
2021/12/29 08:32:21;;;;;;;114.93;30.30;;;;;;;;;;6183283;23;20055;-82
2021/12/29 08:34:47;;;;;;;154.45;33.35;;;;;;;;;;6207182;23;20027;-83
2021/12/29 08:37:13;;;;;;;145.57;32.65;;;;;;;;;;6181572;23;20048;-82
2021/12/29 08:39:39;;;;;;;160.75;35.97;;;;;;;;;;6208268;23;20216;-82
2021/12/29 08:42:05;;;;;;;151.35;36.83;;;;;;;;;;6183046;23;20009;-82
2021/12/29 08:44:32;;;;;;;157.73;35.30;;;;;;;;;;6183180;23;20016;-82
2021/12/29 08:46:58;;;;;;;160.63;35.55;;;;;;;;;;6207659;23;20366;-82
2021/12/29 08:49:24;;;;;;;180.25;37.85;;;;;;;;;;6207923;23;20027;-82
2021/12/29 08:51:50;;;;;;;191.23;37.38;;;;;;;;;;6207594;23;20024;-82
2021/12/29 08:54:16;;;;;;;164.25;36.80;;;;;;;;;;6205905;23;20055;-82
2021/12/29 08:56:42;;;;;;;164.40;35.95;;;;;;;;;;6205056;23;20017;-83
2021/12/29 08:59:10;;;;;;;152.38;35.05;;;;;;;;;;6207169;23;20009;-83
2021/12/29 09:01:36;;;;;;;156.30;33.42;;;;;;;;;;6182338;23;20016;-82
2021/12/29 09:04:02;;;;;;;135.45;31.80;;;;;;;;;;6207721;23;20087;-82
2021/12/29 09:06:28;;;;;;;131.52;32.35;;;;;;;;;;6183165;23;20075;-82
2021/12/29 09:08:55;;;;;;;129.38;30.98;;;;;;;;;;6207767;23;20066;-82
2021/12/29 09:11:21;;;;;;;124.18;30.42;;;;;;;;;;6208500;23;20012;-82
2021/12/29 09:13:47;;;;;;;133.88;31.60;;;;;;;;;;6208574;23;20021;-83
2021/12/29 09:16:14;;;;;;;134.90;31.40;;;;;;;;;;6207920;23;20024;-82
2021/12/29 09:18:40;;;;;;;120.03;29.83;;;;;;;;;;6208190;23;20020;-82
2021/12/29 09:21:13;;;;;;;130.70;31.17;;;;;;;;;;6208003;23;20008;-82
2021/12/29 09:23:39;;;;;;;135.52;31.60;;;;;;;;;;6183159;23;20571;-82
2021/12/29 09:26:06;;;;;;;148.30;33.40;;;;;;;;;;6208089;23;20044;-83
2021/12/29 09:28:32;;;;;;;135.98;31.17;;;;;;;;;;6207701;23;20019;-83
2021/12/29 09:30:59;;;;;;;123.32;31.15;;;;;;;;;;6207913;23;20017;-83
2021/12/29 09:33:28;;;;;;;174.00;37.03;;;;;;;;;;6207595;23;20017;-83
2021/12/29 09:35:59;;;;;;;136.48;32.95;;;;;;;;;;6207791;23;20343;-82
2021/12/29 09:38:25;;;;;;;149.65;35.53;;;;;;;;;;6206165;23;20070;-82
2021/12/29 09:40:52;;;;;;;170.90;37.78;;;;;;;;;;6207386;23;20013;-83
2021/12/29 09:43:18;;;;;;;173.07;37.15;;;;;;;;;;6207666;23;20016;-84
2021/12/29 09:45:46;;;;;;;174.70;34.88;;;;;;;;;;6207368;23;20063;-83
2021/12/29 09:48:12;;;;;;;199.07;37.40;;;;;;;;;;6208729;23;20020;-82
2021/12/29 09:50:39;;;;;;;170.73;34.38;;;;;;;;;;6210431;23;20020;-83
2021/12/29 09:56:00;;;;;;;227.60;39.97;;;;;;;;;;6184706;23;20051;-82
2021/12/29 09:58:27;;;;;;;146.50;29.90;;;;;;;;;;6184669;23;20012;-82
2021/12/29 10:00:59;;;;;;;134.18;28.77;;;;;;;;;;6184564;23;20071;-83
2021/12/29 10:03:26;;;;;;;135.30;28.83;;;;;;;;;;6184610;23;20012;-83
2021/12/29 10:05:54;;;;;;;100.78;25.65;;;;;;;;;;6185325;23;20021;-83
2021/12/29 10:08:24;;;;;;;110.88;27.17;;;;;;;;;;6159933;23;20023;-83
2021/12/29 10:10:51;;;;;;;81.68;22.85;;;;;;;;;;6184883;23;20016;-82
2021/12/29 10:13:18;;;;;;;74.05;20.95;;;;;;;;;;6184964;23;20058;-82
2021/12/29 10:15:51;;;;;;;70.65;20.42;;;;;;;;;;6184580;23;20016;-82
2021/12/29 10:18:19;;;;;;;58.75;19.10;;;;;;;;;;6184936;23;20020;-83
2021/12/29 10:20:47;;;;;;;74.55;20.95;;;;;;;;;;6159686;23;20013;-83
2021/12/29 10:23:16;;;;;;;69.45;19.75;;;;;;;;;;6184238;23;20009;-84
2021/12/29 10:25:42;;;;;;;63.42;19.15;;;;;;;;;;6184420;23;20016;-84
2021/12/29 10:28:18;;;;;;;57.47;18.38;;;;;;;;;;6160233;23;20020;-84
2021/12/29 10:30:44;;;;;;;55.78;17.52;;;;;;;;;;6184632;23;20373;-84
2021/12/29 10:33:11;;;;;;;60.80;18.50;;;;;;;;;;6184241;23;20044;-82
2021/12/29 10:35:38;;;;;;;56.67;16.60;;;;;;;;;;6183995;23;20017;-83
2021/12/29 10:38:13;;;;;;;73.38;19.60;;;;;;;;;;6184073;23;20012;-82
2021/12/29 10:40:39;;;;;;;62.58;17.98;;;;;;;;;;6184802;23;20099;-85
2021/12/29 10:43:06;;;;;;;47.72;16.67;;;;;;;;;;6209536;23;20019;-85
2021/12/29 10:45:34;;;;;;;48.42;15.90;;;;;;;;;;6184471;23;20048;-83
2021/12/29 10:48:00;;;;;;;45.80;16.20;;;;;;;;;;6209867;23;20047;-83
2021/12/29 10:50:27;;;;;;;49.78;17.33;;;;;;;;;;6184141;23;20031;-83
2021/12/29 10:52:56;;;;;;;55.55;17.48;;;;;;;;;;6184289;23;20092;-83
2021/12/29 10:55:22;;;;;;;48.95;17.48;;;;;;;;;;6209336;23;20101;-84
2021/12/29 10:58:00;;;;;;;49.67;16.55;;;;;;;;;;6209420;23;20024;-83
2021/12/29 11:00:26;;;;;;;54.03;17.65;;;;;;;;;;6209100;23;20020;-83
2021/12/29 11:02:53;;;;;;;63.80;20.60;;;;;;;;;;6209346;23;20040;-83
2021/12/29 11:05:19;;;;;;;44.83;16.83;;;;;;;;;;6209902;23;20071;-83
2021/12/29 11:07:45;;;;;;;53.15;18.00;;;;;;;;;;6209240;23;20066;-84
2021/12/29 11:10:13;;;;;;;46.50;16.77;;;;;;;;;;6184262;23;20246;-83
2021/12/29 11:12:56;;;;;;;55.70;19.80;;;;;;;;;;6183820;23;20020;-84
2021/12/29 11:15:27;;;;;;;51.20;17.52;;;;;;;;;;6184778;23;20053;-83
2021/12/29 11:17:54;;;;;;;46.47;17.10;;;;;;;;;;6209209;23;20019;-84
2021/12/29 11:20:22;;;;;;;46.88;17.85;;;;;;;;;;6209165;23;20008;-83
2021/12/29 11:22:49;;;;;;;47.58;17.67;;;;;;;;;;6209642;23;20019;-83
2021/12/29 11:25:15;;;;;;;47.85;18.73;;;;;;;;;;6209260;23;20064;-83
2021/12/29 11:27:41;;;;;;;39.95;16.75;;;;;;;;;;6209157;23;20017;-84
2021/12/29 11:30:09;;;;;;;56.78;20.58;;;;;;;;;;6209279;23;20016;-83
2021/12/29 11:32:38;;;;;;;60.15;20.33;;;;;;;;;;6208469;23;20055;-84
2021/12/29 11:35:12;;;;;;;49.10;17.90;;;;;;;;;;6209099;23;20069;-83
2021/12/29 11:37:40;;;;;;;56.60;19.52;;;;;;;;;;6209094;23;20048;-83
2021/12/29 11:40:08;;;;;;;53.67;18.60;;;;;;;;;;6208753;23;20454;-83
2021/12/29 11:42:34;;;;;;;54.40;19.92;;;;;;;;;;6209005;23;20012;-83
2021/12/29 11:45:00;;;;;;;57.60;19.92;;;;;;;;;;6209097;23;20016;-83
2021/12/29 11:47:26;;;;;;;52.35;19.63;;;;;;;;;;6183871;23;20099;-83
2021/12/29 11:49:52;;;;;;;61.72;21.85;;;;;;;;;;6208934;23;20442;-82
2021/12/29 11:52:39;;;;;;;48.88;19.55;;;;;;;;;;6203680;23;20052;-83
2021/12/29 11:55:05;;;;;;;74.03;22.95;;;;;;;;;;6179636;23;20100;-83
2021/12/29 11:57:32;;;;;;;62.85;22.05;;;;;;;;;;6178691;23;20017;-83
2021/12/29 12:00:17;;;;;;;60.40;21.27;;;;;;;;;;6178723;23;20340;-82
2021/12/29 12:02:43;;;;;;;;;;;;;;;;;;6179235;23;20009;-83
2021/12/29 12:05:16;;;;;;;50.60;20.33;;;;;;;;;;6179079;23;19982;-83
2021/12/29 12:07:43;;;;;;;55.03;19.33;;;;;;;;;;6154288;23;20443;-83
2021/12/29 12:10:12;;;;;;;75.05;23.75;;;;;;;;;;6179010;23;20025;-83
2021/12/29 12:12:41;;;;;;;55.85;20.55;;;;;;;;;;6178170;23;20347;-83
2021/12/29 12:15:07;;;;;;;60.17;21.20;;;;;;;;;;6178416;23;20017;-83
2021/12/29 12:17:34;;;;;;;49.97;19.25;;;;;;;;;;6178557;23;20009;-83
2021/12/29 12:20:06;;;;;;;69.65;23.27;;;;;;;;;;6178630;23;20435;-83
2021/12/29 12:22:47;;;;;;;67.55;21.45;;;;;;;;;;6178549;23;20016;-83
2021/12/29 12:25:14;;;;;;;62.85;22.05;;;;;;;;;;6178475;23;20096;-83
2021/12/29 12:27:42;;;;;;;52.28;19.45;;;;;;;;;;6178467;23;20017;-83
2021/12/29 12:30:11;;;;;;;43.45;17.73;;;;;;;;;;6153793;23;20017;-83
2021/12/29 12:32:43;;;;;;;42.00;17.52;;;;;;;;;;6153692;23;20052;-83
2021/12/29 12:35:10;;;;;;;40.50;15.88;;;;;;;;;;6178346;23;20440;-83
2021/12/29 12:37:41;;;;;;;39.17;16.08;;;;;;;;;;6178864;23;20088;-83
2021/12/29 12:40:09;;;;;;;38.85;15.00;;;;;;;;;;6178679;23;20044;-83
2021/12/29 12:42:42;;;;;;;37.00;14.27;;;;;;;;;;5085995;27;20659;-83
2021/12/29 12:45:21;;;;;;;33.25;14.63;;;;;;;;;;5084412;28;20410;-83
2021/12/29 12:47:48;;;;;;;41.58;14.65;;;;;;;;;;5078097;28;20423;-84
2021/12/29 12:50:28;;;;;;;41.38;14.48;;;;;;;;;;5074750;28;20068;-84
2021/12/29 12:52:55;;;;;;;34.33;13.93;;;;;;;;;;5074804;28;20036;-84
2021/12/29 12:55:22;;;;;;;35.13;13.88;;;;;;;;;;5084458;28;20043;-84
2021/12/29 12:57:50;;;;;;;35.47;14.77;;;;;;;;;;5084317;28;20033;-84
2021/12/29 13:00:28;;;;;;;38.63;15.87;;;;;;;;;;5084686;28;20450;-84
2021/12/29 13:02:56;;;;;;;47.42;16.70;;;;;;;;;;5067360;28;20036;-84
2021/12/29 13:08:37;;;;;;;39.92;15.50;;;;;;;;;;5064325;28;20399;-83
2021/12/29 13:11:09;;;;;;;39.13;14.85;;;;;;;;;;5105029;28;20045;-84
2021/12/29 13:13:36;;;;;;;46.22;16.77;;;;;;;;;;5070451;28;20056;-83
2021/12/29 13:16:04;;;;;;;42.17;16.33;;;;;;;;;;5073547;28;20145;-83
2021/12/29 13:18:31;;;;;;;40.70;17.63;;;;;;;;;;5074464;28;20083;-84
2021/12/29 13:20:59;;;;;;;33.85;16.10;;;;;;;;;;5067491;28;20578;-84
2021/12/29 13:23:26;;;;;;;44.08;20.17;;;;;;;;;;5083855;28;20040;-84
2021/12/29 13:25:55;;;;;;;37.80;15.55;;;;;;;;;;5084115;28;20470;-84
2021/12/29 13:28:22;;;;;;;40.35;16.17;;;;;;;;;;5066494;28;20103;-83
2021/12/29 13:30:55;;;;;;;41.22;15.45;;;;;;;;;;5058497;28;20135;-83
2021/12/29 13:33:26;;;;;;;32.13;15.02;;;;;;;;;;5067177;28;20122;-83
2021/12/29 13:35:53;;;;;;;40.42;16.05;;;;;;;;;;5077822;28;20044;-83
2021/12/29 13:38:19;;;;;;;50.45;18.30;;;;;;;;;;5083767;28;20070;-84
2021/12/29 13:40:46;;;;;;;43.92;18.83;;;;;;;;;;5077307;28;20060;-83
2021/12/29 13:43:14;;;;;;;42.25;17.60;;;;;;;;;;5104277;28;20559;-84
2021/12/29 13:45:40;;;;;;;41.58;17.27;;;;;;;;;;5089982;28;20041;-85
2021/12/29 13:48:07;;;;;;;42.35;17.42;;;;;;;;;;5054780;28;20036;-84
2021/12/29 13:50:33;;;;;;;47.83;19.27;;;;;;;;;;5066804;28;20036;-84
2021/12/29 13:53:05;;;;;;;55.08;20.70;;;;;;;;;;5067090;28;20044;-84
2021/12/29 13:55:39;;;;;;;55.80;19.73;;;;;;;;;;5093581;28;20045;-84
2021/12/29 13:58:06;;;;;;;47.58;19.83;;;;;;;;;;5068598;28;20051;-84
2021/12/29 14:00:33;;;;;;;46.80;20.05;;;;;;;;;;5053315;28;20146;-84
2021/12/29 14:03:00;;;;;;;63.97;22.75;;;;;;;;;;5069796;28;20041;-84
2021/12/29 14:05:40;;;;;;;57.60;23.13;;;;;;;;;;5069684;28;20047;-84
2021/12/29 14:08:07;;;;;;;60.70;22.38;;;;;;;;;;5060704;28;20041;-84
2021/12/29 14:10:34;;;;;;;55.08;22.77;;;;;;;;;;5069667;28;20071;-84
2021/12/29 14:13:04;;;;;;;67.00;24.40;;;;;;;;;;5060478;28;20396;-84
2021/12/29 14:15:31;;;;;;;56.60;22.02;;;;;;;;;;5060199;28;20263;-84
2021/12/29 14:17:58;;;;;;;54.03;22.75;;;;;;;;;;5052938;28;20040;-84
2021/12/29 14:20:25;;;;;;;50.25;20.77;;;;;;;;;;5069213;28;20124;-84
2021/12/29 14:23:01;;;;;;;47.80;22.52;;;;;;;;;;5052783;28;20519;-84
2021/12/29 14:25:32;;;;;;;54.97;22.83;;;;;;;;;;5068672;28;20040;-85